Mayport Naval Station, Florida
Current Conditions -  °F | °C
As of 6:52 PM on Wednesday 26 Nov 2014 (Local Time) from KNRB Reporting Station
Few Clouds Few Clouds  
Wind Chill: 54°   Ceiling: Unl
Heat Index: 54°   Visibility: 10mi
Dew Point: 44°   Wind: 3mph
Humidity: 69%   Direction: 270°W
Pressure: 30.16"   Gusts: NA
Location:  30.3812°N, 81.4077°W
Report Text: KNRB 262352Z 27003KT 10SM FEW200 12/07 A3016 RMK AO2 SLP214 T01220067 10167 20122 53019 $
Loading
Personal Weather Stations






























Interactive Weather Map New forecast layout! Learn more

10-Day Weather Forecast

Advertisements
Track Severe Weather on mobile